createdAt,value
2022-10-17T00:01:31.015Z,10.90
2022-10-17T00:03:59.885Z,11.53
2022-10-17T00:06:28.743Z,10.43
2022-10-17T00:08:57.652Z,11.03
2022-10-17T00:11:26.516Z,10.23
2022-10-17T00:13:57.922Z,9.93
2022-10-17T00:16:28.119Z,10.70
2022-10-17T00:18:57.372Z,10.07
2022-10-17T00:21:26.715Z,12.60
2022-10-17T00:23:55.998Z,13.20
2022-10-17T00:26:24.902Z,12.60
2022-10-17T00:28:56.447Z,9.93
2022-10-17T00:31:28.295Z,9.27
2022-10-17T00:33:57.097Z,9.47
2022-10-17T00:36:29.095Z,9.00
2022-10-17T00:39:00.301Z,10.07
2022-10-17T00:41:31.283Z,8.93
2022-10-17T00:44:02.880Z,9.30
2022-10-17T00:46:33.772Z,8.87
2022-10-17T00:49:06.670Z,10.50
2022-10-17T00:51:39.848Z,9.60
2022-10-17T00:54:10.004Z,9.60
2022-10-17T00:56:40.488Z,8.43
2022-10-17T00:59:13.624Z,9.33
2022-10-17T01:01:45.436Z,9.33
2022-10-17T01:04:15.859Z,9.13
2022-10-17T01:06:45.799Z,10.10
2022-10-17T01:09:14.667Z,8.33
2022-10-17T01:11:52.041Z,9.60
2022-10-17T01:14:29.852Z,8.87
2022-10-17T01:17:06.399Z,8.50
2022-10-17T01:19:52.126Z,8.57
2022-10-17T01:22:28.485Z,9.43
2022-10-17T01:25:25.021Z,9.33
2022-10-17T01:28:19.908Z,7.17
2022-10-17T01:31:03.859Z,8.10
2022-10-17T01:33:44.854Z,8.30
2022-10-17T01:36:20.887Z,7.90
2022-10-17T01:38:54.261Z,7.97
2022-10-17T01:41:32.739Z,7.97
2022-10-17T01:44:05.699Z,7.60
2022-10-17T01:46:39.257Z,7.43
2022-10-17T01:49:12.405Z,7.80
2022-10-17T01:51:44.767Z,7.27
2022-10-17T01:54:19.792Z,8.97
2022-10-17T01:56:53.675Z,7.03
2022-10-17T01:59:26.775Z,7.10
2022-10-17T02:02:00.443Z,7.87
2022-10-17T02:04:30.450Z,7.93
2022-10-17T02:07:06.847Z,7.40
2022-10-17T02:09:36.345Z,7.50
2022-10-17T02:12:21.364Z,7.80
2022-10-17T02:15:10.299Z,7.87
2022-10-17T02:17:52.316Z,7.40
2022-10-17T02:20:26.959Z,7.70
2022-10-17T02:23:01.823Z,8.83
2022-10-17T02:25:41.578Z,6.23
2022-10-17T02:28:20.418Z,5.87
2022-10-17T02:30:56.463Z,6.53
2022-10-17T02:33:30.519Z,6.40
2022-10-17T02:36:04.993Z,6.47
2022-10-17T02:38:35.371Z,6.20
2022-10-17T02:41:05.240Z,7.30
2022-10-17T02:43:35.565Z,6.43
2022-10-17T02:46:04.990Z,5.87
2022-10-17T02:48:42.574Z,6.10
2022-10-17T02:51:20.876Z,6.03
2022-10-17T02:53:59.488Z,5.80
2022-10-17T02:56:31.529Z,5.13
2022-10-17T02:59:03.708Z,5.53
2022-10-17T03:01:33.137Z,6.37
2022-10-17T03:04:11.988Z,5.00
2022-10-17T03:06:41.973Z,5.60
2022-10-17T03:09:11.364Z,6.77
2022-10-17T03:11:40.459Z,5.17
2022-10-17T03:14:10.764Z,5.50
2022-10-17T03:16:40.342Z,6.20
2022-10-17T03:19:10.729Z,5.20
2022-10-17T03:21:39.792Z,5.47
2022-10-17T03:24:09.825Z,6.00
2022-10-17T03:26:38.833Z,5.80
2022-10-17T03:29:09.427Z,5.83
2022-10-17T03:31:38.463Z,4.93
2022-10-17T03:34:10.323Z,5.23
2022-10-17T03:36:39.332Z,5.13
2022-10-17T03:39:08.822Z,7.00
2022-10-17T03:41:37.810Z,6.40
2022-10-17T03:44:07.273Z,5.30
2022-10-17T03:46:36.308Z,5.37
2022-10-17T03:49:06.290Z,5.80
2022-10-17T03:51:37.079Z,5.27
2022-10-17T03:54:11.454Z,5.90
2022-10-17T03:56:40.292Z,5.97
2022-10-17T03:59:15.594Z,5.70
2022-10-17T04:01:50.160Z,5.13
2022-10-17T04:04:21.069Z,6.57
2022-10-17T04:06:51.295Z,5.63
2022-10-17T04:09:20.279Z,5.57
2022-10-17T04:11:58.835Z,5.57
2022-10-17T04:14:27.941Z,4.93
2022-10-17T04:16:58.561Z,6.17
2022-10-17T04:19:28.638Z,6.77
2022-10-17T04:21:59.156Z,5.40
2022-10-17T04:24:29.651Z,7.10
2022-10-17T04:27:21.445Z,5.67
2022-10-17T04:29:50.493Z,5.73
2022-10-17T04:32:24.554Z,6.43
2022-10-17T04:35:04.001Z,6.20
2022-10-17T04:37:35.349Z,6.23
2022-10-17T04:40:11.870Z,5.73
2022-10-17T04:42:40.867Z,6.07
2022-10-17T04:45:12.227Z,6.40
2022-10-17T04:47:42.363Z,6.37
2022-10-17T04:50:11.366Z,7.47
2022-10-17T04:52:43.590Z,8.30
2022-10-17T04:55:12.426Z,5.87
2022-10-17T04:57:42.121Z,6.43
2022-10-17T05:00:19.784Z,6.10
2022-10-17T05:03:00.979Z,5.17
2022-10-17T05:05:30.916Z,6.10
2022-10-17T05:08:01.184Z,6.03
2022-10-17T05:10:37.920Z,5.80
2022-10-17T05:13:08.738Z,7.03
2022-10-17T05:15:39.739Z,7.60
2022-10-17T05:18:08.990Z,6.47
2022-10-17T05:20:38.703Z,6.97
2022-10-17T05:23:09.900Z,7.47
2022-10-17T05:25:42.588Z,5.97
2022-10-17T05:28:11.415Z,7.53
2022-10-17T05:30:42.285Z,6.63
2022-10-17T05:33:11.693Z,5.83
2022-10-17T05:35:40.617Z,7.23
2022-10-17T05:38:11.016Z,6.80
2022-10-17T05:40:42.078Z,7.07
2022-10-17T05:43:10.827Z,6.73
2022-10-17T05:45:39.708Z,6.37
2022-10-17T05:48:11.848Z,6.50
2022-10-17T05:50:41.535Z,6.60
2022-10-17T05:53:17.186Z,6.60
2022-10-17T05:55:58.097Z,6.20
2022-10-17T06:01:30.109Z,6.70
2022-10-17T06:03:59.258Z,7.47
2022-10-17T06:06:28.039Z,6.57
2022-10-17T06:08:58.987Z,5.83
2022-10-17T06:11:33.752Z,6.50
2022-10-17T06:14:03.176Z,6.47
2022-10-17T06:16:32.554Z,7.13
2022-10-17T06:19:01.638Z,6.93
2022-10-17T06:21:34.444Z,6.13
2022-10-17T06:24:10.926Z,6.13
2022-10-17T06:26:42.710Z,6.97
2022-10-17T06:29:14.014Z,7.40
2022-10-17T06:31:48.063Z,7.33
2022-10-17T06:34:17.169Z,7.00
2022-10-17T06:36:47.108Z,6.80
2022-10-17T06:39:17.822Z,7.40
2022-10-17T06:41:54.037Z,7.07
2022-10-17T06:44:25.426Z,6.17
2022-10-17T06:47:17.893Z,6.07
2022-10-17T06:49:49.002Z,7.53
2022-10-17T06:52:26.628Z,7.37
2022-10-17T06:55:18.269Z,6.90
2022-10-17T06:58:09.516Z,6.40
2022-10-17T07:00:49.245Z,6.30
2022-10-17T07:03:19.198Z,7.40
2022-10-17T07:05:53.571Z,6.97
2022-10-17T07:08:22.964Z,7.40
2022-10-17T07:10:53.871Z,5.90
2022-10-17T07:13:22.978Z,6.10
2022-10-17T07:15:53.093Z,5.57
2022-10-17T07:18:22.257Z,5.70
2022-10-17T07:20:55.550Z,6.17
2022-10-17T07:23:25.361Z,6.90
2022-10-17T07:26:01.221Z,4.87
2022-10-17T07:28:31.012Z,6.37
2022-10-17T07:31:10.107Z,5.60
2022-10-17T07:33:40.369Z,5.70
2022-10-17T07:36:09.868Z,4.30
2022-10-17T07:38:39.069Z,5.57
2022-10-17T07:41:12.181Z,11.87
2022-10-17T07:43:43.015Z,4.80
2022-10-17T07:46:12.981Z,5.50
2022-10-17T07:48:42.290Z,4.63
2022-10-17T07:51:11.880Z,4.70
2022-10-17T07:53:46.362Z,4.83
2022-10-17T07:56:19.233Z,5.33
2022-10-17T07:58:48.542Z,5.80
2022-10-17T08:01:17.748Z,4.70
2022-10-17T08:03:48.604Z,4.90
2022-10-17T08:06:18.049Z,5.60
2022-10-17T08:08:47.022Z,4.47
2022-10-17T08:11:18.313Z,6.33
2022-10-17T08:13:47.354Z,6.23
2022-10-17T08:16:16.360Z,4.60
2022-10-17T08:18:46.462Z,4.80
2022-10-17T08:21:15.657Z,5.20
2022-10-17T08:23:44.695Z,4.93
2022-10-17T08:26:17.253Z,4.80
2022-10-17T08:28:48.036Z,4.83
2022-10-17T08:31:19.382Z,4.30
2022-10-17T08:33:49.805Z,4.07
2022-10-17T08:36:21.449Z,4.10
2022-10-17T08:38:52.950Z,3.87
2022-10-17T08:41:39.874Z,4.23
2022-10-17T08:44:22.116Z,4.30
2022-10-17T08:46:59.071Z,4.30
2022-10-17T08:49:37.148Z,4.70
2022-10-17T08:52:12.747Z,4.80
2022-10-17T08:54:46.299Z,4.53
2022-10-17T08:57:16.870Z,4.73
2022-10-17T08:59:52.217Z,4.97
2022-10-17T09:02:40.395Z,3.20
2022-10-17T09:05:29.686Z,3.37
2022-10-17T09:08:10.503Z,3.07
2022-10-17T09:10:53.898Z,4.10
2022-10-17T09:13:47.027Z,3.60
2022-10-17T09:16:39.840Z,4.00
2022-10-17T09:19:14.069Z,3.70
2022-10-17T09:21:47.310Z,3.97
2022-10-17T09:24:20.538Z,3.37
2022-10-17T09:26:49.614Z,4.27
2022-10-17T09:29:23.587Z,3.53
2022-10-17T09:32:01.968Z,3.53
2022-10-17T09:34:33.595Z,3.90
2022-10-17T09:37:03.671Z,4.20
2022-10-17T09:39:33.235Z,4.60
2022-10-17T09:42:04.082Z,3.30
2022-10-17T09:44:34.891Z,3.80
2022-10-17T09:47:16.955Z,4.80
2022-10-17T09:49:47.917Z,3.50
2022-10-17T09:52:23.492Z,3.40
2022-10-17T09:54:55.560Z,4.20
2022-10-17T09:57:25.674Z,4.07
2022-10-17T10:00:01.265Z,4.80
2022-10-17T10:02:36.697Z,3.80
2022-10-17T10:05:16.685Z,4.40
2022-10-17T10:08:02.853Z,3.27
2022-10-17T10:10:33.928Z,2.90
2022-10-17T10:13:18.278Z,3.20
2022-10-17T10:15:49.525Z,3.17
2022-10-17T10:18:36.666Z,3.33
2022-10-17T10:21:12.520Z,2.87
2022-10-17T10:23:43.060Z,3.50
2022-10-17T10:26:24.797Z,3.57
2022-10-17T10:29:00.080Z,4.77
2022-10-17T10:31:35.708Z,3.10
2022-10-17T10:34:18.007Z,3.40
2022-10-17T10:36:57.864Z,4.03
2022-10-17T10:39:36.134Z,3.83
2022-10-17T10:42:08.253Z,2.63
2022-10-17T10:44:40.891Z,3.73
2022-10-17T10:47:22.715Z,3.37
2022-10-17T10:50:08.740Z,3.33
2022-10-17T10:52:44.846Z,4.10
2022-10-17T10:55:25.290Z,3.70
2022-10-17T10:57:59.938Z,3.50
2022-10-17T11:00:30.793Z,3.87
2022-10-17T11:03:11.821Z,3.07
2022-10-17T11:05:48.357Z,3.47
2022-10-17T11:08:27.983Z,3.20
2022-10-17T11:11:13.860Z,3.30
2022-10-17T11:13:51.888Z,4.13
2022-10-17T11:16:32.789Z,3.63
2022-10-17T11:19:09.428Z,3.60
2022-10-17T11:21:48.152Z,3.10
2022-10-17T11:24:24.862Z,3.13
2022-10-17T11:27:00.234Z,3.80
2022-10-17T11:29:32.266Z,3.13
2022-10-17T11:32:07.168Z,4.27
2022-10-17T11:34:42.998Z,3.27
2022-10-17T11:37:18.822Z,3.30
2022-10-17T11:39:52.836Z,2.83
2022-10-17T11:42:27.541Z,3.30
2022-10-17T11:45:04.860Z,3.10
2022-10-17T11:47:46.213Z,2.73
2022-10-17T11:53:21.480Z,3.50
2022-10-17T11:55:52.439Z,2.87
2022-10-17T11:58:31.321Z,2.93
2022-10-17T12:01:11.120Z,3.20
2022-10-17T12:04:06.488Z,3.47
2022-10-17T12:06:49.784Z,3.20
2022-10-17T12:09:28.753Z,3.40
2022-10-17T12:12:00.028Z,3.03
2022-10-17T12:14:41.757Z,3.47
2022-10-17T12:17:42.392Z,3.50
2022-10-17T12:20:31.943Z,3.90
2022-10-17T12:23:20.541Z,2.83
2022-10-17T12:25:59.636Z,3.80
2022-10-17T12:28:35.107Z,3.00
2022-10-17T12:31:08.805Z,3.53
2022-10-17T12:33:41.438Z,3.50
2022-10-17T12:36:47.117Z,3.47
2022-10-17T12:39:43.637Z,3.57
2022-10-17T12:42:33.146Z,3.70
2022-10-17T12:45:02.367Z,3.53
2022-10-17T12:47:40.225Z,2.97
2022-10-17T12:50:43.009Z,3.60
2022-10-17T12:53:19.303Z,3.30
2022-10-17T12:55:51.939Z,3.30
2022-10-17T12:58:22.539Z,3.43
2022-10-17T13:01:19.104Z,2.80
2022-10-17T13:03:48.135Z,3.20
2022-10-17T13:06:22.278Z,2.40
2022-10-17T13:08:59.788Z,2.80
2022-10-17T13:11:35.988Z,3.17
2022-10-17T13:14:14.699Z,3.40
2022-10-17T13:16:53.673Z,3.70
2022-10-17T13:19:25.911Z,3.30
2022-10-17T13:21:59.904Z,3.27
2022-10-17T13:24:32.784Z,3.20
2022-10-17T13:27:04.965Z,4.50
2022-10-17T13:29:35.749Z,3.40
2022-10-17T13:32:06.731Z,3.77
2022-10-17T13:34:36.241Z,3.40
2022-10-17T13:37:07.757Z,3.80
2022-10-17T13:40:00.094Z,3.33
2022-10-17T13:42:32.363Z,3.70
2022-10-17T13:45:03.631Z,4.90
2022-10-17T13:47:37.952Z,5.00
2022-10-17T13:50:26.468Z,3.60
2022-10-17T13:53:20.886Z,2.63
2022-10-17T13:56:09.469Z,2.93
2022-10-17T13:58:45.418Z,2.97
2022-10-17T14:01:16.824Z,3.57
2022-10-17T14:03:49.115Z,2.90
2022-10-17T14:06:21.693Z,3.20
2022-10-17T14:08:54.868Z,3.27
2022-10-17T14:11:32.151Z,3.43
2022-10-17T14:14:02.871Z,3.50
2022-10-17T14:16:40.101Z,3.80
2022-10-17T14:19:26.215Z,3.77
2022-10-17T14:21:57.217Z,4.10
2022-10-17T14:24:32.754Z,3.40
2022-10-17T14:27:02.503Z,3.77
2022-10-17T14:29:33.539Z,3.03
2022-10-17T14:32:08.693Z,3.63
2022-10-17T14:34:40.660Z,2.90
2022-10-17T14:37:23.820Z,3.07
2022-10-17T14:39:55.277Z,2.60
2022-10-17T14:42:25.078Z,3.50
2022-10-17T14:44:58.194Z,3.57
2022-10-17T14:47:45.363Z,3.60
2022-10-17T14:50:26.496Z,4.00
2022-10-17T14:53:05.020Z,4.47
2022-10-17T14:55:36.803Z,4.27
2022-10-17T14:58:18.693Z,4.70
2022-10-17T15:00:47.561Z,4.77
2022-10-17T15:03:19.497Z,5.00
2022-10-17T15:05:49.696Z,3.67
2022-10-17T15:08:21.381Z,3.60
2022-10-17T15:10:52.885Z,4.00
2022-10-17T15:13:31.331Z,5.60
2022-10-17T15:16:02.480Z,3.87
2022-10-17T15:18:34.215Z,3.43
2022-10-17T15:21:05.319Z,3.67
2022-10-17T15:23:46.815Z,4.00
2022-10-17T15:26:20.078Z,4.03
2022-10-17T15:28:50.785Z,4.17
2022-10-17T15:31:22.361Z,4.07
2022-10-17T15:33:53.118Z,4.93
2022-10-17T15:36:26.319Z,4.37
2022-10-17T15:38:58.965Z,4.03
2022-10-17T15:41:30.457Z,4.07
2022-10-17T15:43:59.966Z,4.50
2022-10-17T15:46:34.056Z,4.27
2022-10-17T15:49:07.688Z,4.63
2022-10-17T15:51:36.589Z,4.77
2022-10-17T15:54:06.447Z,4.93
2022-10-17T15:56:41.529Z,4.70
2022-10-17T15:59:16.905Z,4.33
2022-10-17T16:01:46.423Z,6.30
2022-10-17T16:04:17.207Z,4.57
2022-10-17T16:06:46.096Z,5.20
2022-10-17T16:09:14.832Z,4.90
2022-10-17T16:11:45.467Z,5.57
2022-10-17T16:14:16.814Z,6.13
2022-10-17T16:16:45.880Z,6.43
2022-10-17T16:19:16.373Z,4.47
2022-10-17T16:21:45.498Z,4.10
2022-10-17T16:24:14.595Z,3.67
2022-10-17T16:26:43.454Z,3.80
2022-10-17T16:29:12.284Z,5.00
2022-10-17T16:31:45.299Z,4.57
2022-10-17T16:34:17.035Z,4.80
2022-10-17T16:36:45.814Z,5.10
2022-10-17T16:39:14.730Z,4.10
2022-10-17T16:41:43.614Z,3.53
2022-10-17T16:44:14.876Z,5.17
2022-10-17T16:46:43.697Z,3.50
2022-10-17T16:49:13.023Z,5.50
2022-10-17T16:51:43.860Z,3.53
2022-10-17T16:54:12.626Z,4.53
2022-10-17T16:56:42.269Z,5.03
2022-10-17T16:59:12.765Z,3.73
2022-10-17T17:01:41.886Z,7.57
2022-10-17T17:04:10.609Z,3.70
2022-10-17T17:06:39.486Z,3.60
2022-10-17T17:09:10.949Z,3.67
2022-10-17T17:11:40.216Z,4.40
2022-10-17T17:14:10.399Z,5.10
2022-10-17T17:16:39.322Z,4.67
2022-10-17T17:19:12.922Z,3.10
2022-10-17T17:21:43.344Z,4.67
2022-10-17T17:24:13.480Z,5.60
2022-10-17T17:26:42.339Z,5.23
2022-10-17T17:29:12.152Z,6.37
2022-10-17T17:31:40.975Z,5.73
2022-10-17T17:34:11.103Z,5.20
2022-10-17T17:36:41.930Z,6.97
2022-10-17T17:39:17.549Z,5.17
2022-10-17T17:41:47.104Z,6.73
2022-10-17T17:44:17.155Z,5.10
2022-10-17T17:46:46.919Z,5.03
2022-10-17T17:49:16.093Z,6.10
2022-10-17T17:51:46.696Z,6.03
2022-10-17T17:54:17.562Z,7.63
2022-10-17T17:56:46.339Z,8.27
2022-10-17T17:59:15.380Z,7.13
2022-10-17T18:01:45.435Z,7.00
2022-10-17T18:04:16.299Z,7.23
2022-10-17T18:06:45.237Z,7.00
2022-10-17T18:09:14.385Z,7.63
2022-10-17T18:11:44.650Z,6.20
2022-10-17T18:14:14.324Z,5.43
2022-10-17T18:16:43.575Z,5.33
2022-10-17T18:19:13.549Z,6.90
2022-10-17T18:21:43.044Z,7.33
2022-10-17T18:24:11.985Z,6.87
2022-10-17T18:26:40.806Z,5.67
2022-10-17T18:29:12.750Z,7.80
2022-10-17T18:31:41.567Z,21.77
2022-10-17T18:34:11.106Z,10.47
2022-10-17T18:36:40.060Z,7.10
2022-10-17T18:39:08.993Z,5.67
2022-10-17T18:41:37.769Z,6.20
2022-10-17T18:44:06.905Z,5.40
2022-10-17T18:46:41.020Z,7.20
2022-10-17T18:49:16.291Z,7.77
2022-10-17T18:51:45.168Z,12.10
2022-10-17T18:54:17.134Z,9.40
2022-10-17T18:56:45.893Z,6.77
2022-10-17T18:59:14.974Z,7.80
2022-10-17T19:01:45.851Z,8.07
2022-10-17T19:04:15.092Z,9.93
2022-10-17T19:06:44.659Z,10.00
2022-10-17T19:09:15.770Z,10.57
2022-10-17T19:11:45.031Z,10.33
2022-10-17T19:14:14.785Z,9.93
2022-10-17T19:16:48.615Z,9.07
2022-10-17T19:19:20.205Z,9.77
2022-10-17T19:21:50.039Z,10.57
2022-10-17T19:24:22.867Z,9.90
2022-10-17T19:26:54.530Z,10.07
2022-10-17T19:29:27.223Z,10.60
2022-10-17T19:31:57.558Z,8.30
2022-10-17T19:34:27.779Z,8.90
2022-10-17T19:36:57.027Z,9.93
2022-10-17T19:39:26.677Z,10.03
2022-10-17T19:41:56.089Z,8.87
2022-10-17T19:44:25.156Z,13.00
2022-10-17T19:46:54.481Z,10.93
2022-10-17T19:49:25.039Z,11.50
2022-10-17T19:51:53.980Z,9.90
2022-10-17T19:54:22.702Z,11.00
2022-10-17T19:56:51.454Z,10.97
2022-10-17T19:59:20.375Z,11.17
2022-10-17T20:01:49.232Z,11.67
2022-10-17T20:04:18.033Z,12.40
2022-10-17T20:06:48.292Z,11.80
2022-10-17T20:09:17.546Z,12.60
2022-10-17T20:11:47.189Z,11.60
2022-10-17T20:14:16.000Z,11.60
2022-10-17T20:16:50.170Z,13.10
2022-10-17T20:19:19.465Z,13.57
2022-10-17T20:21:49.617Z,12.93
2022-10-17T20:24:18.907Z,13.07
2022-10-17T20:26:47.878Z,10.87
2022-10-17T20:29:20.218Z,10.70
2022-10-17T20:31:50.076Z,10.00
2022-10-17T20:34:20.951Z,9.43
2022-10-17T20:36:51.573Z,15.00
2022-10-17T20:39:22.039Z,11.40
2022-10-17T20:41:50.985Z,12.37
2022-10-17T20:44:19.993Z,12.80
2022-10-17T20:47:01.262Z,12.50
2022-10-17T20:49:31.900Z,13.67
2022-10-17T20:52:02.749Z,10.53
2022-10-17T20:54:31.900Z,9.40
2022-10-17T20:57:03.927Z,10.43
2022-10-17T20:59:36.131Z,9.97
2022-10-17T21:02:06.045Z,10.07
2022-10-17T21:04:50.745Z,11.70
2022-10-17T21:07:22.289Z,10.83
2022-10-17T21:09:51.418Z,17.60
2022-10-17T21:12:30.924Z,9.03
2022-10-17T21:15:10.434Z,9.47
2022-10-17T21:17:39.325Z,11.00
2022-10-17T21:20:09.863Z,13.57
2022-10-17T21:22:40.322Z,10.03
2022-10-17T21:25:10.543Z,14.20
2022-10-17T21:27:39.481Z,10.57
2022-10-17T21:30:09.409Z,9.70
2022-10-17T21:32:50.994Z,9.80
2022-10-17T21:35:20.883Z,15.33
2022-10-17T21:37:51.148Z,11.43
2022-10-17T21:40:20.141Z,20.40
2022-10-17T21:42:48.931Z,17.90
2022-10-17T21:45:25.303Z,14.20
2022-10-17T21:48:12.222Z,13.77
2022-10-17T21:50:42.364Z,13.27
2022-10-17T21:53:12.759Z,12.83
2022-10-17T21:55:41.545Z,16.03
2022-10-17T21:58:10.382Z,14.70
2022-10-17T22:00:39.194Z,16.13
2022-10-17T22:03:09.604Z,11.30
2022-10-17T22:05:38.333Z,10.70
2022-10-17T22:08:07.477Z,10.00
2022-10-17T22:10:40.547Z,10.83
2022-10-17T22:13:09.591Z,10.63
2022-10-17T22:15:38.380Z,9.00
2022-10-17T22:18:08.728Z,9.93
2022-10-17T22:20:37.804Z,8.40
2022-10-17T22:23:07.756Z,8.63
2022-10-17T22:25:39.933Z,8.17
2022-10-17T22:28:08.902Z,10.80
2022-10-17T22:30:37.615Z,8.57
2022-10-17T22:33:06.570Z,11.37
2022-10-17T22:35:35.741Z,8.90
2022-10-17T22:38:04.507Z,9.07
2022-10-17T22:40:33.419Z,7.80
2022-10-17T22:43:04.032Z,7.60
2022-10-17T22:45:33.187Z,7.20
2022-10-17T22:48:01.978Z,7.53
2022-10-17T22:50:30.864Z,7.00
2022-10-17T22:52:59.648Z,8.57
2022-10-17T22:55:28.756Z,8.10
2022-10-17T22:57:57.536Z,7.53
2022-10-17T23:02:57.710Z,6.67
2022-10-17T23:05:26.564Z,6.90
2022-10-17T23:07:55.477Z,7.07
2022-10-17T23:10:24.218Z,8.73
2022-10-17T23:12:53.217Z,8.50
2022-10-17T23:15:22.249Z,8.07
2022-10-17T23:17:52.523Z,8.57
2022-10-17T23:20:21.411Z,8.13
2022-10-17T23:22:50.299Z,7.60
2022-10-17T23:25:19.659Z,7.93
2022-10-17T23:27:49.175Z,8.10
2022-10-17T23:30:18.311Z,8.73
2022-10-17T23:32:47.127Z,7.70
2022-10-17T23:35:17.591Z,7.13
2022-10-17T23:37:46.377Z,7.47
2022-10-17T23:40:15.774Z,8.93
2022-10-17T23:42:45.194Z,7.40
2022-10-17T23:45:14.670Z,7.47
2022-10-17T23:47:44.010Z,7.57
2022-10-17T23:50:12.878Z,6.77
2022-10-17T23:52:43.051Z,8.00
2022-10-17T23:55:12.533Z,7.30
2022-10-17T23:57:41.398Z,7.10
